sensor_id;sensor_type;location;lat;lon;timestamp;P1;durP1;ratioP1;P2;durP2;ratioP2
31638;SDS011;18248;51.522;7.020;2024-02-21T00:02:39;52.67;;;16.58;;
31638;SDS011;18248;51.522;7.020;2024-02-21T00:05:38;46.15;;;16.88;;
31638;SDS011;18248;51.522;7.020;2024-02-21T00:08:36;53.80;;;17.55;;
31638;SDS011;18248;51.522;7.020;2024-02-21T00:11:35;56.40;;;18.58;;
31638;SDS011;18248;51.522;7.020;2024-02-21T00:14:33;57.30;;;18.13;;
31638;SDS011;18248;51.522;7.020;2024-02-21T00:17:32;42.83;;;16.80;;
31638;SDS011;18248;51.522;7.020;2024-02-21T00:20:30;61.03;;;19.33;;
31638;SDS011;18248;51.522;7.020;2024-02-21T00:23:29;46.47;;;18.17;;
31638;SDS011;18248;51.522;7.020;2024-02-21T00:26:27;45.20;;;17.27;;
31638;SDS011;18248;51.522;7.020;2024-02-21T00:29:26;47.70;;;17.77;;
31638;SDS011;18248;51.522;7.020;2024-02-21T00:32:25;48.65;;;17.83;;
31638;SDS011;18248;51.522;7.020;2024-02-21T00:35:24;46.10;;;17.88;;
31638;SDS011;18248;51.522;7.020;2024-02-21T00:38:22;39.42;;;16.52;;
31638;SDS011;18248;51.522;7.020;2024-02-21T00:41:21;51.40;;;17.80;;
31638;SDS011;18248;51.522;7.020;2024-02-21T00:44:19;39.83;;;16.42;;
31638;SDS011;18248;51.522;7.020;2024-02-21T00:47:18;45.08;;;17.52;;
31638;SDS011;18248;51.522;7.020;2024-02-21T00:50:17;47.55;;;18.40;;
31638;SDS011;18248;51.522;7.020;2024-02-21T00:53:16;45.13;;;17.42;;
31638;SDS011;18248;51.522;7.020;2024-02-21T00:56:14;45.50;;;17.30;;
31638;SDS011;18248;51.522;7.020;2024-02-21T00:59:14;52.05;;;18.40;;
31638;SDS011;18248;51.522;7.020;2024-02-21T01:02:13;49.50;;;17.63;;
31638;SDS011;18248;51.522;7.020;2024-02-21T01:05:11;37.03;;;15.48;;
31638;SDS011;18248;51.522;7.020;2024-02-21T01:08:10;46.97;;;17.30;;
31638;SDS011;18248;51.522;7.020;2024-02-21T01:11:08;36.53;;;15.10;;
31638;SDS011;18248;51.522;7.020;2024-02-21T01:14:07;30.90;;;14.93;;
31638;SDS011;18248;51.522;7.020;2024-02-21T01:17:05;44.45;;;15.90;;
31638;SDS011;18248;51.522;7.020;2024-02-21T01:20:04;47.95;;;15.95;;
31638;SDS011;18248;51.522;7.020;2024-02-21T01:23:03;43.78;;;17.33;;
31638;SDS011;18248;51.522;7.020;2024-02-21T01:26:05;52.97;;;17.70;;
31638;SDS011;18248;51.522;7.020;2024-02-21T01:29:06;48.15;;;16.58;;
31638;SDS011;18248;51.522;7.020;2024-02-21T01:32:04;45.47;;;17.88;;
31638;SDS011;18248;51.522;7.020;2024-02-21T01:35:03;45.55;;;16.45;;
31638;SDS011;18248;51.522;7.020;2024-02-21T01:38:02;41.22;;;15.80;;
31638;SDS011;18248;51.522;7.020;2024-02-21T01:41:02;43.55;;;16.70;;
31638;SDS011;18248;51.522;7.020;2024-02-21T01:44:01;40.83;;;16.02;;
31638;SDS011;18248;51.522;7.020;2024-02-21T01:46:59;44.95;;;16.25;;
31638;SDS011;18248;51.522;7.020;2024-02-21T01:49:58;42.92;;;16.55;;
31638;SDS011;18248;51.522;7.020;2024-02-21T01:52:58;39.08;;;14.93;;
31638;SDS011;18248;51.522;7.020;2024-02-21T01:55:57;42.80;;;15.13;;
31638;SDS011;18248;51.522;7.020;2024-02-21T01:58:55;41.63;;;15.25;;
31638;SDS011;18248;51.522;7.020;2024-02-21T02:01:54;39.78;;;15.90;;
31638;SDS011;18248;51.522;7.020;2024-02-21T02:04:54;42.83;;;15.23;;
31638;SDS011;18248;51.522;7.020;2024-02-21T02:07:54;40.88;;;14.60;;
31638;SDS011;18248;51.522;7.020;2024-02-21T02:10:53;35.30;;;13.50;;
31638;SDS011;18248;51.522;7.020;2024-02-21T02:13:51;43.00;;;14.98;;
31638;SDS011;18248;51.522;7.020;2024-02-21T02:16:50;36.65;;;14.05;;
31638;SDS011;18248;51.522;7.020;2024-02-21T02:19:48;36.22;;;13.63;;
31638;SDS011;18248;51.522;7.020;2024-02-21T02:22:47;38.22;;;14.68;;
31638;SDS011;18248;51.522;7.020;2024-02-21T02:25:47;34.60;;;14.40;;
31638;SDS011;18248;51.522;7.020;2024-02-21T02:28:47;46.78;;;15.30;;
31638;SDS011;18248;51.522;7.020;2024-02-21T02:31:45;43.83;;;15.35;;
31638;SDS011;18248;51.522;7.020;2024-02-21T02:34:44;39.40;;;13.52;;
31638;SDS011;18248;51.522;7.020;2024-02-21T02:37:49;34.75;;;14.25;;
31638;SDS011;18248;51.522;7.020;2024-02-21T02:40:48;44.78;;;15.32;;
31638;SDS011;18248;51.522;7.020;2024-02-21T02:43:47;38.60;;;13.98;;
31638;SDS011;18248;51.522;7.020;2024-02-21T02:46:45;38.70;;;14.35;;
31638;SDS011;18248;51.522;7.020;2024-02-21T02:49:44;38.30;;;13.02;;
31638;SDS011;18248;51.522;7.020;2024-02-21T02:52:42;50.47;;;15.20;;
31638;SDS011;18248;51.522;7.020;2024-02-21T02:55:41;40.55;;;13.20;;
31638;SDS011;18248;51.522;7.020;2024-02-21T02:58:40;41.97;;;14.25;;
31638;SDS011;18248;51.522;7.020;2024-02-21T03:01:38;36.78;;;13.68;;
31638;SDS011;18248;51.522;7.020;2024-02-21T03:04:39;42.05;;;14.95;;
31638;SDS011;18248;51.522;7.020;2024-02-21T03:07:38;40.22;;;13.68;;
31638;SDS011;18248;51.522;7.020;2024-02-21T03:10:36;33.10;;;12.40;;
31638;SDS011;18248;51.522;7.020;2024-02-21T03:13:35;50.50;;;15.20;;
31638;SDS011;18248;51.522;7.020;2024-02-21T03:16:33;38.67;;;12.70;;
31638;SDS011;18248;51.522;7.020;2024-02-21T03:19:32;40.97;;;14.25;;
31638;SDS011;18248;51.522;7.020;2024-02-21T03:22:31;43.42;;;13.98;;
31638;SDS011;18248;51.522;7.020;2024-02-21T03:25:30;35.22;;;12.88;;
31638;SDS011;18248;51.522;7.020;2024-02-21T03:28:29;33.63;;;14.45;;
31638;SDS011;18248;51.522;7.020;2024-02-21T03:31:27;30.33;;;12.85;;
31638;SDS011;18248;51.522;7.020;2024-02-21T03:34:26;47.22;;;14.13;;
31638;SDS011;18248;51.522;7.020;2024-02-21T03:37:24;33.60;;;12.95;;
31638;SDS011;18248;51.522;7.020;2024-02-21T03:40:23;42.25;;;13.20;;
31638;SDS011;18248;51.522;7.020;2024-02-21T03:43:22;40.08;;;13.23;;
31638;SDS011;18248;51.522;7.020;2024-02-21T03:46:20;38.25;;;12.35;;
31638;SDS011;18248;51.522;7.020;2024-02-21T03:49:19;39.28;;;12.93;;
31638;SDS011;18248;51.522;7.020;2024-02-21T03:52:17;35.45;;;12.27;;
31638;SDS011;18248;51.522;7.020;2024-02-21T03:55:16;30.05;;;12.93;;
31638;SDS011;18248;51.522;7.020;2024-02-21T03:58:14;39.63;;;13.20;;
31638;SDS011;18248;51.522;7.020;2024-02-21T04:01:14;37.20;;;12.88;;
31638;SDS011;18248;51.522;7.020;2024-02-21T04:04:13;38.33;;;12.35;;
31638;SDS011;18248;51.522;7.020;2024-02-21T04:07:15;34.00;;;12.80;;
31638;SDS011;18248;51.522;7.020;2024-02-21T04:10:13;33.22;;;11.45;;
31638;SDS011;18248;51.522;7.020;2024-02-21T04:13:12;28.88;;;11.00;;
31638;SDS011;18248;51.522;7.020;2024-02-21T04:16:10;34.92;;;12.52;;
31638;SDS011;18248;51.522;7.020;2024-02-21T04:19:09;28.23;;;12.25;;
31638;SDS011;18248;51.522;7.020;2024-02-21T04:22:07;31.27;;;12.77;;
31638;SDS011;18248;51.522;7.020;2024-02-21T04:25:06;39.58;;;12.95;;
31638;SDS011;18248;51.522;7.020;2024-02-21T04:28:05;38.42;;;12.68;;
31638;SDS011;18248;51.522;7.020;2024-02-21T04:31:03;28.85;;;12.43;;
31638;SDS011;18248;51.522;7.020;2024-02-21T04:34:02;36.00;;;13.43;;
31638;SDS011;18248;51.522;7.020;2024-02-21T04:37:00;33.25;;;11.60;;
31638;SDS011;18248;51.522;7.020;2024-02-21T04:39:59;44.38;;;12.13;;
31638;SDS011;18248;51.522;7.020;2024-02-21T04:42:57;31.15;;;11.23;;
31638;SDS011;18248;51.522;7.020;2024-02-21T04:45:56;33.08;;;11.90;;
31638;SDS011;18248;51.522;7.020;2024-02-21T04:48:55;30.88;;;11.65;;
31638;SDS011;18248;51.522;7.020;2024-02-21T04:51:54;28.83;;;11.27;;
31638;SDS011;18248;51.522;7.020;2024-02-21T04:54:52;24.98;;;10.07;;
31638;SDS011;18248;51.522;7.020;2024-02-21T04:57:51;30.92;;;11.25;;
31638;SDS011;18248;51.522;7.020;2024-02-21T05:00:50;33.28;;;12.63;;
31638;SDS011;18248;51.522;7.020;2024-02-21T05:03:48;26.90;;;10.18;;
31638;SDS011;18248;51.522;7.020;2024-02-21T05:06:47;30.77;;;11.38;;
31638;SDS011;18248;51.522;7.020;2024-02-21T05:09:45;40.25;;;12.45;;
31638;SDS011;18248;51.522;7.020;2024-02-21T05:12:44;27.50;;;10.05;;
31638;SDS011;18248;51.522;7.020;2024-02-21T05:15:42;27.25;;;9.93;;
31638;SDS011;18248;51.522;7.020;2024-02-21T05:18:41;22.95;;;9.25;;
31638;SDS011;18248;51.522;7.020;2024-02-21T05:21:41;28.63;;;9.77;;
31638;SDS011;18248;51.522;7.020;2024-02-21T05:24:39;26.02;;;8.63;;
31638;SDS011;18248;51.522;7.020;2024-02-21T05:27:38;24.05;;;8.80;;
31638;SDS011;18248;51.522;7.020;2024-02-21T05:30:37;22.95;;;9.07;;
31638;SDS011;18248;51.522;7.020;2024-02-21T05:33:35;25.40;;;9.52;;
31638;SDS011;18248;51.522;7.020;2024-02-21T05:36:34;26.65;;;9.90;;
31638;SDS011;18248;51.522;7.020;2024-02-21T05:39:32;28.52;;;10.77;;
31638;SDS011;18248;51.522;7.020;2024-02-21T05:42:31;38.10;;;10.07;;
31638;SDS011;18248;51.522;7.020;2024-02-21T05:45:30;27.35;;;9.65;;
31638;SDS011;18248;51.522;7.020;2024-02-21T05:48:28;22.45;;;9.23;;
31638;SDS011;18248;51.522;7.020;2024-02-21T05:51:27;31.55;;;8.80;;
31638;SDS011;18248;51.522;7.020;2024-02-21T05:54:25;27.35;;;8.63;;
31638;SDS011;18248;51.522;7.020;2024-02-21T05:57:24;30.15;;;9.27;;
31638;SDS011;18248;51.522;7.020;2024-02-21T06:00:22;22.02;;;8.38;;
31638;SDS011;18248;51.522;7.020;2024-02-21T06:03:21;30.55;;;8.93;;
31638;SDS011;18248;51.522;7.020;2024-02-21T06:06:19;27.45;;;9.13;;
31638;SDS011;18248;51.522;7.020;2024-02-21T06:09:19;22.02;;;8.02;;
31638;SDS011;18248;51.522;7.020;2024-02-21T06:12:18;28.63;;;9.13;;
31638;SDS011;18248;51.522;7.020;2024-02-21T06:15:16;26.15;;;8.10;;
31638;SDS011;18248;51.522;7.020;2024-02-21T06:18:15;31.33;;;8.60;;
31638;SDS011;18248;51.522;7.020;2024-02-21T06:21:17;23.23;;;8.57;;
31638;SDS011;18248;51.522;7.020;2024-02-21T06:24:16;25.33;;;8.55;;
31638;SDS011;18248;51.522;7.020;2024-02-21T06:27:15;18.80;;;7.97;;
31638;SDS011;18248;51.522;7.020;2024-02-21T06:30:14;17.70;;;6.78;;
31638;SDS011;18248;51.522;7.020;2024-02-21T06:33:13;22.05;;;8.27;;
31638;SDS011;18248;51.522;7.020;2024-02-21T06:36:11;28.33;;;9.32;;
31638;SDS011;18248;51.522;7.020;2024-02-21T06:39:10;27.70;;;8.52;;
31638;SDS011;18248;51.522;7.020;2024-02-21T06:42:09;21.33;;;7.93;;
31638;SDS011;18248;51.522;7.020;2024-02-21T06:45:08;21.30;;;8.15;;
31638;SDS011;18248;51.522;7.020;2024-02-21T06:48:06;25.30;;;7.63;;
31638;SDS011;18248;51.522;7.020;2024-02-21T06:51:06;24.63;;;8.63;;
31638;SDS011;18248;51.522;7.020;2024-02-21T06:54:04;23.02;;;7.57;;
31638;SDS011;18248;51.522;7.020;2024-02-21T06:57:03;26.23;;;7.93;;
31638;SDS011;18248;51.522;7.020;2024-02-21T07:00:01;25.30;;;9.10;;
31638;SDS011;18248;51.522;7.020;2024-02-21T07:03:00;20.98;;;7.22;;
31638;SDS011;18248;51.522;7.020;2024-02-21T07:05:59;30.35;;;8.50;;
31638;SDS011;18248;51.522;7.020;2024-02-21T07:08:57;26.83;;;8.38;;
31638;SDS011;18248;51.522;7.020;2024-02-21T07:11:56;25.85;;;8.07;;
31638;SDS011;18248;51.522;7.020;2024-02-21T07:14:54;26.73;;;8.10;;
31638;SDS011;18248;51.522;7.020;2024-02-21T07:17:53;21.55;;;7.25;;
31638;SDS011;18248;51.522;7.020;2024-02-21T07:20:52;23.08;;;8.07;;
31638;SDS011;18248;51.522;7.020;2024-02-21T07:23:50;24.00;;;8.77;;
31638;SDS011;18248;51.522;7.020;2024-02-21T07:26:49;28.98;;;8.60;;
31638;SDS011;18248;51.522;7.020;2024-02-21T07:29:47;25.35;;;7.80;;
31638;SDS011;18248;51.522;7.020;2024-02-21T07:32:50;29.55;;;8.27;;
31638;SDS011;18248;51.522;7.020;2024-02-21T07:35:49;18.30;;;7.18;;
31638;SDS011;18248;51.522;7.020;2024-02-21T07:38:47;29.58;;;7.53;;
31638;SDS011;18248;51.522;7.020;2024-02-21T07:41:46;19.90;;;6.97;;
31638;SDS011;18248;51.522;7.020;2024-02-21T07:44:46;26.40;;;8.68;;
31638;SDS011;18248;51.522;7.020;2024-02-21T07:47:44;28.58;;;8.68;;
31638;SDS011;18248;51.522;7.020;2024-02-21T07:50:43;24.65;;;7.40;;
31638;SDS011;18248;51.522;7.020;2024-02-21T07:53:41;21.75;;;7.30;;
31638;SDS011;18248;51.522;7.020;2024-02-21T07:56:42;20.00;;;7.95;;
31638;SDS011;18248;51.522;7.020;2024-02-21T07:59:41;23.58;;;8.02;;
31638;SDS011;18248;51.522;7.020;2024-02-21T08:02:40;23.80;;;9.75;;
31638;SDS011;18248;51.522;7.020;2024-02-21T08:05:40;23.45;;;8.10;;
31638;SDS011;18248;51.522;7.020;2024-02-21T08:08:39;21.38;;;6.97;;
31638;SDS011;18248;51.522;7.020;2024-02-21T08:11:38;22.15;;;7.63;;
31638;SDS011;18248;51.522;7.020;2024-02-21T08:14:37;23.20;;;9.05;;
31638;SDS011;18248;51.522;7.020;2024-02-21T08:17:36;19.25;;;7.60;;
31638;SDS011;18248;51.522;7.020;2024-02-21T08:20:34;17.05;;;7.00;;
31638;SDS011;18248;51.522;7.020;2024-02-21T08:23:33;16.88;;;6.25;;
31638;SDS011;18248;51.522;7.020;2024-02-21T08:26:32;25.48;;;7.43;;
31638;SDS011;18248;51.522;7.020;2024-02-21T08:29:31;19.02;;;6.80;;
31638;SDS011;18248;51.522;7.020;2024-02-21T08:32:29;17.95;;;5.95;;
31638;SDS011;18248;51.522;7.020;2024-02-21T08:35:28;22.77;;;5.68;;
31638;SDS011;18248;51.522;7.020;2024-02-21T08:38:26;21.98;;;5.75;;
31638;SDS011;18248;51.522;7.020;2024-02-21T08:41:25;22.85;;;6.07;;
31638;SDS011;18248;51.522;7.020;2024-02-21T08:44:24;24.80;;;6.13;;
31638;SDS011;18248;51.522;7.020;2024-02-21T08:47:26;18.25;;;5.90;;
31638;SDS011;18248;51.522;7.020;2024-02-21T08:50:25;25.10;;;6.18;;
31638;SDS011;18248;51.522;7.020;2024-02-21T08:53:23;27.10;;;6.82;;
31638;SDS011;18248;51.522;7.020;2024-02-21T08:56:22;32.00;;;6.38;;
31638;SDS011;18248;51.522;7.020;2024-02-21T08:59:20;19.45;;;6.28;;
31638;SDS011;18248;51.522;7.020;2024-02-21T09:02:19;22.75;;;6.10;;
31638;SDS011;18248;51.522;7.020;2024-02-21T09:05:18;23.10;;;5.93;;
31638;SDS011;18248;51.522;7.020;2024-02-21T09:08:16;20.90;;;6.30;;
31638;SDS011;18248;51.522;7.020;2024-02-21T09:11:16;25.67;;;6.50;;
31638;SDS011;18248;51.522;7.020;2024-02-21T09:14:15;23.45;;;6.75;;
31638;SDS011;18248;51.522;7.020;2024-02-21T09:17:13;19.25;;;5.72;;
31638;SDS011;18248;51.522;7.020;2024-02-21T09:20:13;19.13;;;6.10;;
31638;SDS011;18248;51.522;7.020;2024-02-21T09:23:14;23.27;;;6.43;;
31638;SDS011;18248;51.522;7.020;2024-02-21T09:26:13;16.65;;;6.30;;
31638;SDS011;18248;51.522;7.020;2024-02-21T09:29:14;21.10;;;5.63;;
31638;SDS011;18248;51.522;7.020;2024-02-21T09:32:13;14.18;;;4.82;;
31638;SDS011;18248;51.522;7.020;2024-02-21T09:35:12;12.00;;;4.22;;
31638;SDS011;18248;51.522;7.020;2024-02-21T09:38:10;13.98;;;4.45;;
31638;SDS011;18248;51.522;7.020;2024-02-21T09:41:18;16.45;;;4.65;;
31638;SDS011;18248;51.522;7.020;2024-02-21T09:44:29;12.73;;;3.67;;
31638;SDS011;18248;51.522;7.020;2024-02-21T09:47:37;18.48;;;3.92;;
31638;SDS011;18248;51.522;7.020;2024-02-21T09:50:39;10.82;;;3.33;;
31638;SDS011;18248;51.522;7.020;2024-02-21T09:53:41;8.73;;;3.45;;
31638;SDS011;18248;51.522;7.020;2024-02-21T09:56:44;8.43;;;3.00;;
31638;SDS011;18248;51.522;7.020;2024-02-21T09:59:44;6.95;;;3.00;;
31638;SDS011;18248;51.522;7.020;2024-02-21T10:02:43;10.55;;;3.30;;
31638;SDS011;18248;51.522;7.020;2024-02-21T10:05:46;18.63;;;4.15;;
31638;SDS011;18248;51.522;7.020;2024-02-21T10:08:52;18.63;;;3.80;;
31638;SDS011;18248;51.522;7.020;2024-02-21T10:11:51;10.77;;;3.63;;
31638;SDS011;18248;51.522;7.020;2024-02-21T10:14:59;9.32;;;3.70;;
31638;SDS011;18248;51.522;7.020;2024-02-21T10:18:01;9.80;;;4.05;;
31638;SDS011;18248;51.522;7.020;2024-02-21T10:21:05;15.20;;;3.85;;
31638;SDS011;18248;51.522;7.020;2024-02-21T10:24:04;16.80;;;4.82;;
31638;SDS011;18248;51.522;7.020;2024-02-21T10:27:06;15.50;;;4.95;;
31638;SDS011;18248;51.522;7.020;2024-02-21T10:30:13;17.65;;;4.50;;
31638;SDS011;18248;51.522;7.020;2024-02-21T10:33:12;19.45;;;5.45;;
31638;SDS011;18248;51.522;7.020;2024-02-21T10:36:14;13.98;;;5.28;;
31638;SDS011;18248;51.522;7.020;2024-02-21T10:39:12;16.25;;;4.95;;
31638;SDS011;18248;51.522;7.020;2024-02-21T10:42:11;15.25;;;5.05;;
31638;SDS011;18248;51.522;7.020;2024-02-21T10:45:10;17.38;;;4.78;;
31638;SDS011;18248;51.522;7.020;2024-02-21T10:48:12;15.20;;;5.07;;
31638;SDS011;18248;51.522;7.020;2024-02-21T10:51:18;14.70;;;4.82;;
31638;SDS011;18248;51.522;7.020;2024-02-21T10:57:43;13.15;;;4.47;;
31638;SDS011;18248;51.522;7.020;2024-02-21T11:00:42;16.83;;;4.40;;
31638;SDS011;18248;51.522;7.020;2024-02-21T11:03:41;16.58;;;4.47;;
31638;SDS011;18248;51.522;7.020;2024-02-21T11:06:42;15.57;;;4.00;;
31638;SDS011;18248;51.522;7.020;2024-02-21T11:09:50;11.00;;;3.88;;
31638;SDS011;18248;51.522;7.020;2024-02-21T11:13:08;15.30;;;3.58;;
31638;SDS011;18248;51.522;7.020;2024-02-21T11:16:08;14.23;;;3.88;;
31638;SDS011;18248;51.522;7.020;2024-02-21T11:19:20;12.77;;;3.80;;
31638;SDS011;18248;51.522;7.020;2024-02-21T11:22:25;11.93;;;3.67;;
31638;SDS011;18248;51.522;7.020;2024-02-21T11:25:29;10.70;;;3.80;;
31638;SDS011;18248;51.522;7.020;2024-02-21T11:28:31;15.75;;;4.05;;
31638;SDS011;18248;51.522;7.020;2024-02-21T11:31:41;11.43;;;3.65;;
31638;SDS011;18248;51.522;7.020;2024-02-21T11:34:41;18.23;;;4.55;;
31638;SDS011;18248;51.522;7.020;2024-02-21T11:37:50;12.10;;;3.80;;
31638;SDS011;18248;51.522;7.020;2024-02-21T11:40:48;14.27;;;3.70;;
31638;SDS011;18248;51.522;7.020;2024-02-21T11:43:50;17.60;;;4.35;;
31638;SDS011;18248;51.522;7.020;2024-02-21T11:46:49;16.35;;;4.30;;
31638;SDS011;18248;51.522;7.020;2024-02-21T11:49:48;21.42;;;4.53;;
31638;SDS011;18248;51.522;7.020;2024-02-21T11:55:52;12.63;;;4.20;;
31638;SDS011;18248;51.522;7.020;2024-02-21T11:58:50;16.65;;;3.90;;
31638;SDS011;18248;51.522;7.020;2024-02-21T12:01:49;11.95;;;3.50;;
31638;SDS011;18248;51.522;7.020;2024-02-21T12:04:49;15.48;;;3.83;;
31638;SDS011;18248;51.522;7.020;2024-02-21T12:07:49;11.52;;;3.67;;
31638;SDS011;18248;51.522;7.020;2024-02-21T12:10:48;14.55;;;4.30;;
31638;SDS011;18248;51.522;7.020;2024-02-21T12:14:01;13.98;;;4.32;;
31638;SDS011;18248;51.522;7.020;2024-02-21T12:17:03;12.70;;;4.80;;
31638;SDS011;18248;51.522;7.020;2024-02-21T12:20:05;15.85;;;4.53;;
31638;SDS011;18248;51.522;7.020;2024-02-21T12:23:08;18.85;;;4.38;;
31638;SDS011;18248;51.522;7.020;2024-02-21T12:26:08;17.17;;;3.92;;
31638;SDS011;18248;51.522;7.020;2024-02-21T12:29:07;23.17;;;4.25;;
31638;SDS011;18248;51.522;7.020;2024-02-21T12:32:09;16.73;;;4.78;;
31638;SDS011;18248;51.522;7.020;2024-02-21T12:35:07;18.30;;;3.90;;
31638;SDS011;18248;51.522;7.020;2024-02-21T12:38:06;11.25;;;4.43;;
31638;SDS011;18248;51.522;7.020;2024-02-21T12:41:04;14.68;;;4.35;;
31638;SDS011;18248;51.522;7.020;2024-02-21T12:44:06;15.20;;;4.05;;
31638;SDS011;18248;51.522;7.020;2024-02-21T12:47:05;13.57;;;3.42;;
31638;SDS011;18248;51.522;7.020;2024-02-21T12:50:04;13.18;;;3.72;;
31638;SDS011;18248;51.522;7.020;2024-02-21T12:53:04;18.13;;;4.20;;
31638;SDS011;18248;51.522;7.020;2024-02-21T12:56:03;15.18;;;3.72;;
31638;SDS011;18248;51.522;7.020;2024-02-21T12:59:03;16.50;;;4.00;;
31638;SDS011;18248;51.522;7.020;2024-02-21T13:02:01;19.40;;;4.30;;
31638;SDS011;18248;51.522;7.020;2024-02-21T13:05:00;15.45;;;4.05;;
31638;SDS011;18248;51.522;7.020;2024-02-21T13:08:00;13.88;;;3.97;;
31638;SDS011;18248;51.522;7.020;2024-02-21T13:10:58;13.45;;;4.05;;
31638;SDS011;18248;51.522;7.020;2024-02-21T13:13:57;25.98;;;9.63;;
31638;SDS011;18248;51.522;7.020;2024-02-21T13:16:55;15.82;;;3.28;;
31638;SDS011;18248;51.522;7.020;2024-02-21T13:19:54;14.35;;;3.72;;
31638;SDS011;18248;51.522;7.020;2024-02-21T13:22:52;14.48;;;3.85;;
31638;SDS011;18248;51.522;7.020;2024-02-21T13:25:51;15.07;;;3.50;;
31638;SDS011;18248;51.522;7.020;2024-02-21T13:28:49;15.40;;;3.72;;
31638;SDS011;18248;51.522;7.020;2024-02-21T13:31:48;15.40;;;3.40;;
31638;SDS011;18248;51.522;7.020;2024-02-21T13:34:47;13.68;;;3.47;;
31638;SDS011;18248;51.522;7.020;2024-02-21T13:37:46;11.35;;;3.17;;
31638;SDS011;18248;51.522;7.020;2024-02-21T13:40:44;21.05;;;3.92;;
31638;SDS011;18248;51.522;7.020;2024-02-21T13:43:43;10.57;;;3.30;;
31638;SDS011;18248;51.522;7.020;2024-02-21T13:46:42;12.38;;;3.50;;
31638;SDS011;18248;51.522;7.020;2024-02-21T13:49:40;15.00;;;3.55;;
31638;SDS011;18248;51.522;7.020;2024-02-21T13:52:39;13.65;;;3.25;;
31638;SDS011;18248;51.522;7.020;2024-02-21T13:55:38;15.98;;;3.28;;
31638;SDS011;18248;51.522;7.020;2024-02-21T13:58:38;15.45;;;3.60;;
31638;SDS011;18248;51.522;7.020;2024-02-21T14:01:37;11.43;;;3.30;;
31638;SDS011;18248;51.522;7.020;2024-02-21T14:04:35;13.63;;;3.78;;
31638;SDS011;18248;51.522;7.020;2024-02-21T14:07:34;12.57;;;3.22;;
31638;SDS011;18248;51.522;7.020;2024-02-21T14:10:32;15.55;;;3.58;;
31638;SDS011;18248;51.522;7.020;2024-02-21T14:13:31;11.10;;;3.22;;
31638;SDS011;18248;51.522;7.020;2024-02-21T14:16:30;15.65;;;3.30;;
31638;SDS011;18248;51.522;7.020;2024-02-21T14:19:29;13.30;;;2.92;;
31638;SDS011;18248;51.522;7.020;2024-02-21T14:22:28;16.70;;;3.33;;
31638;SDS011;18248;51.522;7.020;2024-02-21T14:25:27;12.15;;;3.17;;
31638;SDS011;18248;51.522;7.020;2024-02-21T14:28:25;8.20;;;2.67;;
31638;SDS011;18248;51.522;7.020;2024-02-21T14:31:24;17.00;;;3.40;;
31638;SDS011;18248;51.522;7.020;2024-02-21T14:34:26;11.27;;;3.35;;
31638;SDS011;18248;51.522;7.020;2024-02-21T14:37:24;9.02;;;3.40;;
31638;SDS011;18248;51.522;7.020;2024-02-21T14:40:23;19.52;;;4.78;;
31638;SDS011;18248;51.522;7.020;2024-02-21T14:43:21;12.70;;;3.60;;
31638;SDS011;18248;51.522;7.020;2024-02-21T14:46:20;13.95;;;4.03;;
31638;SDS011;18248;51.522;7.020;2024-02-21T14:49:18;16.48;;;3.65;;
31638;SDS011;18248;51.522;7.020;2024-02-21T14:52:17;12.23;;;3.42;;
31638;SDS011;18248;51.522;7.020;2024-02-21T14:55:16;12.18;;;3.33;;
31638;SDS011;18248;51.522;7.020;2024-02-21T14:58:15;17.35;;;3.90;;
31638;SDS011;18248;51.522;7.020;2024-02-21T15:01:15;10.95;;;3.22;;
31638;SDS011;18248;51.522;7.020;2024-02-21T15:04:13;17.63;;;3.58;;
31638;SDS011;18248;51.522;7.020;2024-02-21T15:07:12;15.20;;;4.07;;
31638;SDS011;18248;51.522;7.020;2024-02-21T15:10:11;13.05;;;3.90;;
31638;SDS011;18248;51.522;7.020;2024-02-21T15:13:09;8.60;;;2.92;;
31638;SDS011;18248;51.522;7.020;2024-02-21T15:16:08;10.13;;;3.00;;
31638;SDS011;18248;51.522;7.020;2024-02-21T15:19:06;11.65;;;3.30;;
31638;SDS011;18248;51.522;7.020;2024-02-21T15:22:05;14.48;;;3.38;;
31638;SDS011;18248;51.522;7.020;2024-02-21T15:25:03;10.15;;;3.50;;
31638;SDS011;18248;51.522;7.020;2024-02-21T15:28:05;10.20;;;3.08;;
31638;SDS011;18248;51.522;7.020;2024-02-21T15:31:04;14.77;;;3.33;;
31638;SDS011;18248;51.522;7.020;2024-02-21T15:34:02;9.77;;;3.42;;
31638;SDS011;18248;51.522;7.020;2024-02-21T15:37:01;14.55;;;3.50;;
31638;SDS011;18248;51.522;7.020;2024-02-21T15:39:59;12.13;;;3.53;;
31638;SDS011;18248;51.522;7.020;2024-02-21T15:42:58;13.88;;;3.92;;
31638;SDS011;18248;51.522;7.020;2024-02-21T15:45:57;16.67;;;4.25;;
31638;SDS011;18248;51.522;7.020;2024-02-21T15:48:56;12.38;;;4.00;;
31638;SDS011;18248;51.522;7.020;2024-02-21T15:51:54;9.52;;;3.15;;
31638;SDS011;18248;51.522;7.020;2024-02-21T15:54:53;13.30;;;3.75;;
31638;SDS011;18248;51.522;7.020;2024-02-21T15:57:51;14.45;;;3.67;;
31638;SDS011;18248;51.522;7.020;2024-02-21T16:00:50;15.88;;;3.75;;
31638;SDS011;18248;51.522;7.020;2024-02-21T16:03:49;10.65;;;3.65;;
31638;SDS011;18248;51.522;7.020;2024-02-21T16:06:47;17.73;;;3.92;;
31638;SDS011;18248;51.522;7.020;2024-02-21T16:09:49;15.55;;;5.18;;
31638;SDS011;18248;51.522;7.020;2024-02-21T16:12:47;12.68;;;3.25;;
31638;SDS011;18248;51.522;7.020;2024-02-21T16:15:48;17.45;;;4.03;;
31638;SDS011;18248;51.522;7.020;2024-02-21T16:18:47;14.93;;;3.53;;
31638;SDS011;18248;51.522;7.020;2024-02-21T16:21:46;12.68;;;3.20;;
31638;SDS011;18248;51.522;7.020;2024-02-21T16:24:44;17.60;;;3.45;;
31638;SDS011;18248;51.522;7.020;2024-02-21T16:27:43;14.60;;;2.72;;
31638;SDS011;18248;51.522;7.020;2024-02-21T16:30:41;10.80;;;3.03;;
31638;SDS011;18248;51.522;7.020;2024-02-21T16:33:40;8.77;;;3.03;;
31638;SDS011;18248;51.522;7.020;2024-02-21T16:36:39;11.93;;;2.97;;
31638;SDS011;18248;51.522;7.020;2024-02-21T16:39:37;13.85;;;3.22;;
31638;SDS011;18248;51.522;7.020;2024-02-21T16:42:36;18.80;;;3.83;;
31638;SDS011;18248;51.522;7.020;2024-02-21T16:45:34;10.07;;;3.15;;
31638;SDS011;18248;51.522;7.020;2024-02-21T16:48:33;11.73;;;3.88;;
31638;SDS011;18248;51.522;7.020;2024-02-21T16:51:32;14.35;;;4.18;;
31638;SDS011;18248;51.522;7.020;2024-02-21T16:54:30;16.15;;;5.43;;
31638;SDS011;18248;51.522;7.020;2024-02-21T16:57:29;11.90;;;3.72;;
31638;SDS011;18248;51.522;7.020;2024-02-21T17:00:27;15.60;;;3.95;;
31638;SDS011;18248;51.522;7.020;2024-02-21T17:03:26;12.68;;;3.80;;
31638;SDS011;18248;51.522;7.020;2024-02-21T17:06:24;11.50;;;3.65;;
31638;SDS011;18248;51.522;7.020;2024-02-21T17:09:23;6.97;;;2.92;;
31638;SDS011;18248;51.522;7.020;2024-02-21T17:12:22;7.18;;;2.70;;
31638;SDS011;18248;51.522;7.020;2024-02-21T17:15:20;14.02;;;3.63;;
31638;SDS011;18248;51.522;7.020;2024-02-21T17:18:19;9.90;;;3.10;;
31638;SDS011;18248;51.522;7.020;2024-02-21T17:21:17;10.68;;;3.40;;
31638;SDS011;18248;51.522;7.020;2024-02-21T17:24:16;9.52;;;2.83;;
31638;SDS011;18248;51.522;7.020;2024-02-21T17:27:15;10.95;;;3.20;;
31638;SDS011;18248;51.522;7.020;2024-02-21T17:30:13;11.82;;;3.60;;
31638;SDS011;18248;51.522;7.020;2024-02-21T17:33:13;10.95;;;3.78;;
31638;SDS011;18248;51.522;7.020;2024-02-21T17:36:12;11.27;;;4.60;;
31638;SDS011;18248;51.522;7.020;2024-02-21T17:39:11;15.63;;;4.50;;
31638;SDS011;18248;51.522;7.020;2024-02-21T17:42:09;12.63;;;5.38;;
31638;SDS011;18248;51.522;7.020;2024-02-21T17:45:08;11.15;;;3.92;;
31638;SDS011;18248;51.522;7.020;2024-02-21T17:48:07;18.05;;;5.13;;